createdAt,value
2017-10-13T00:00:26.449Z,8.50
2017-10-13T00:02:53.987Z,8.60
2017-10-13T00:05:21.508Z,8.60
2017-10-13T00:07:49.050Z,8.60
2017-10-13T00:10:17.332Z,8.50
2017-10-13T00:12:44.874Z,8.50
2017-10-13T00:15:13.163Z,8.40
2017-10-13T00:17:41.486Z,8.40
2017-10-13T00:20:09.009Z,8.40
2017-10-13T00:22:36.518Z,8.40
2017-10-13T00:25:04.831Z,8.40
2017-10-13T00:27:32.341Z,8.40
2017-10-13T00:29:59.875Z,8.50
2017-10-13T00:32:27.395Z,8.40
2017-10-13T00:34:54.934Z,8.40
2017-10-13T00:37:23.214Z,8.20
2017-10-13T00:39:51.513Z,8.20
2017-10-13T00:42:19.026Z,8.20
2017-10-13T00:44:46.572Z,8.20
2017-10-13T00:47:14.098Z,8.20
2017-10-13T00:49:41.645Z,8.20
2017-10-13T00:52:09.168Z,8.20
2017-10-13T00:54:36.688Z,8.20
2017-10-13T00:57:04.227Z,8.30
2017-10-13T00:59:31.752Z,8.30
2017-10-13T01:02:00.057Z,8.30
2017-10-13T01:04:27.575Z,8.30
2017-10-13T01:06:55.111Z,8.30
2017-10-13T01:09:22.626Z,8.30
2017-10-13T01:11:50.162Z,8.30
2017-10-13T01:14:18.459Z,8.30
2017-10-13T01:16:45.990Z,8.30
2017-10-13T01:19:14.277Z,8.30
2017-10-13T01:21:42.578Z,8.30
2017-10-13T01:24:10.095Z,8.30
2017-10-13T01:26:37.616Z,8.30
2017-10-13T01:29:05.151Z,8.30
2017-10-13T01:31:32.727Z,8.20
2017-10-13T01:34:00.263Z,8.10
2017-10-13T01:36:27.779Z,8.00
2017-10-13T01:38:55.326Z,8.00
2017-10-13T01:41:22.835Z,8.00
2017-10-13T01:43:50.390Z,8.00
2017-10-13T01:46:17.916Z,8.00
2017-10-13T01:48:45.438Z,8.00
2017-10-13T01:51:12.974Z,8.00
2017-10-13T01:53:40.498Z,8.00
2017-10-13T01:56:08.039Z,8.00
2017-10-13T01:58:35.550Z,8.10
2017-10-13T02:01:03.854Z,8.10
2017-10-13T02:03:31.363Z,8.10
2017-10-13T02:05:59.667Z,8.10
2017-10-13T02:08:27.186Z,8.10
2017-10-13T02:10:54.730Z,8.00
2017-10-13T02:13:23.007Z,8.00
2017-10-13T02:15:50.542Z,8.00
2017-10-13T02:18:18.056Z,8.00
2017-10-13T02:20:46.375Z,7.90
2017-10-13T02:23:13.897Z,7.90
2017-10-13T02:25:42.182Z,7.90
2017-10-13T02:28:10.487Z,7.90
2017-10-13T02:30:38.049Z,7.90
2017-10-13T02:33:05.588Z,7.90
2017-10-13T02:35:33.150Z,7.90
2017-10-13T02:38:00.707Z,7.90
2017-10-13T02:40:28.234Z,7.80
2017-10-13T02:42:56.541Z,7.80
2017-10-13T02:45:24.061Z,7.80
2017-10-13T02:47:52.365Z,7.90
2017-10-13T02:50:19.887Z,7.90
2017-10-13T02:52:47.422Z,7.90
2017-10-13T02:55:14.939Z,8.00
2017-10-13T02:57:42.492Z,8.00
2017-10-13T03:00:10.014Z,8.10
2017-10-13T03:02:37.542Z,8.10
2017-10-13T03:05:05.077Z,8.20
2017-10-13T03:07:32.624Z,8.30
2017-10-13T03:10:00.166Z,8.30
2017-10-13T03:12:27.684Z,8.40
2017-10-13T03:14:55.218Z,8.40
2017-10-13T03:17:22.734Z,8.50
2017-10-13T03:19:50.266Z,8.40
2017-10-13T03:22:17.789Z,8.40
2017-10-13T03:24:45.327Z,8.40
2017-10-13T03:27:12.842Z,8.40
2017-10-13T03:29:41.237Z,8.50
2017-10-13T03:32:08.756Z,8.50
2017-10-13T03:34:36.299Z,8.60
2017-10-13T03:37:03.810Z,8.60
2017-10-13T03:39:31.375Z,8.60
2017-10-13T03:41:58.893Z,8.70
2017-10-13T03:44:26.418Z,8.70
2017-10-13T03:46:53.959Z,8.80
2017-10-13T03:49:22.246Z,8.90
2017-10-13T03:51:50.550Z,8.90
2017-10-13T03:54:18.072Z,8.90
2017-10-13T03:56:46.370Z,8.90
2017-10-13T03:59:14.655Z,8.90
2017-10-13T04:01:42.193Z,8.90
2017-10-13T04:04:10.488Z,9.00
2017-10-13T04:06:38.030Z,9.00
2017-10-13T04:09:06.315Z,9.00
2017-10-13T04:11:34.622Z,9.10
2017-10-13T04:14:02.144Z,9.10
2017-10-13T04:16:30.447Z,9.10
2017-10-13T04:18:57.975Z,9.10
2017-10-13T04:21:26.300Z,9.10
2017-10-13T04:23:53.818Z,9.10
2017-10-13T04:26:22.106Z,9.20
2017-10-13T04:28:50.398Z,9.30
2017-10-13T04:31:18.680Z,9.30
2017-10-13T04:33:46.974Z,9.30
2017-10-13T04:36:14.494Z,9.30
2017-10-13T04:38:42.022Z,9.30
2017-10-13T04:41:10.264Z,9.30
2017-10-13T04:43:37.807Z,9.40
2017-10-13T04:46:06.096Z,9.50
2017-10-13T04:48:34.421Z,9.50
2017-10-13T04:51:01.939Z,9.50
2017-10-13T04:53:29.457Z,9.50
2017-10-13T04:55:57.003Z,9.60
2017-10-13T04:58:24.519Z,9.60
2017-10-13T05:00:52.054Z,9.60
2017-10-13T05:03:20.435Z,9.60
2017-10-13T05:05:48.734Z,9.60
2017-10-13T05:08:16.254Z,9.60
2017-10-13T05:10:43.807Z,9.70
2017-10-13T05:13:11.325Z,9.70
2017-10-13T05:15:38.839Z,9.70
2017-10-13T05:18:06.379Z,9.70
2017-10-13T05:20:33.902Z,9.70
2017-10-13T05:23:01.440Z,9.70
2017-10-13T05:25:29.710Z,9.80
2017-10-13T05:27:58.007Z,9.80
2017-10-13T05:30:25.518Z,9.80
2017-10-13T05:32:53.823Z,10.00
2017-10-13T05:35:21.338Z,9.90
2017-10-13T05:37:49.708Z,10.00
2017-10-13T05:40:17.230Z,10.00
2017-10-13T05:42:44.782Z,10.00
2017-10-13T05:45:12.362Z,10.00
2017-10-13T05:47:39.890Z,10.10
2017-10-13T05:50:07.432Z,10.10
2017-10-13T05:52:35.722Z,10.20
2017-10-13T05:55:03.280Z,10.20
2017-10-13T05:57:30.803Z,10.20
2017-10-13T05:59:58.347Z,10.20
2017-10-13T06:02:25.867Z,10.20
2017-10-13T06:04:53.419Z,10.30
2017-10-13T06:07:20.950Z,10.30
2017-10-13T06:09:49.258Z,10.30
2017-10-13T06:12:16.783Z,10.30
2017-10-13T06:14:44.311Z,10.30
2017-10-13T06:17:12.623Z,10.40
2017-10-13T06:19:40.152Z,10.40
2017-10-13T06:22:08.459Z,10.50
2017-10-13T06:24:35.992Z,10.40
2017-10-13T06:27:04.302Z,10.70
2017-10-13T06:29:31.834Z,10.60
2017-10-13T06:31:59.370Z,10.80
2017-10-13T06:34:26.890Z,10.90
2017-10-13T06:36:54.445Z,11.00
2017-10-13T06:39:21.966Z,11.20
2017-10-13T06:41:50.254Z,11.90
2017-10-13T06:44:17.799Z,11.80
2017-10-13T06:46:46.092Z,12.80
2017-10-13T06:49:13.639Z,12.80
2017-10-13T06:51:41.937Z,14.50
2017-10-13T06:54:09.488Z,14.50
2017-10-13T06:56:37.012Z,14.80
2017-10-13T06:59:04.555Z,14.80
2017-10-13T07:01:32.115Z,14.50
2017-10-13T07:03:59.679Z,14.20
2017-10-13T07:06:27.193Z,13.90
2017-10-13T07:08:54.715Z,13.70
2017-10-13T07:11:22.258Z,13.50
2017-10-13T07:13:50.539Z,13.90
2017-10-13T07:16:18.843Z,14.10
2017-10-13T07:18:46.375Z,14.20
2017-10-13T07:21:14.677Z,15.50
2017-10-13T07:23:42.216Z,15.50
2017-10-13T07:26:10.549Z,16.00
2017-10-13T07:28:38.074Z,16.00
2017-10-13T07:31:05.600Z,16.40
2017-10-13T07:33:33.130Z,16.90
2017-10-13T07:36:00.649Z,17.30
2017-10-13T07:38:28.190Z,17.30
2017-10-13T07:40:56.471Z,17.50
2017-10-13T07:43:24.778Z,17.80
2017-10-13T07:45:52.298Z,17.80
2017-10-13T07:48:20.599Z,17.80
2017-10-13T07:50:48.119Z,17.70
2017-10-13T07:53:15.682Z,17.50
2017-10-13T07:55:43.205Z,17.60
2017-10-13T07:58:10.726Z,17.80
2017-10-13T08:00:38.265Z,18.00
2017-10-13T08:03:05.792Z,18.00
2017-10-13T08:05:34.099Z,17.30
2017-10-13T08:08:01.613Z,17.30
2017-10-13T08:10:29.147Z,16.80
2017-10-13T08:12:56.662Z,16.50
2017-10-13T08:15:24.205Z,16.10
2017-10-13T08:17:52.499Z,15.60
2017-10-13T08:20:20.058Z,15.60
2017-10-13T08:22:47.574Z,15.70
2017-10-13T08:25:15.090Z,15.90
2017-10-13T08:27:42.648Z,16.30
2017-10-13T08:30:10.162Z,16.70
2017-10-13T08:32:37.702Z,16.90
2017-10-13T08:35:05.219Z,16.90
2017-10-13T08:37:32.763Z,17.20
2017-10-13T08:40:00.353Z,17.50
2017-10-13T08:42:27.889Z,17.60
2017-10-13T08:44:55.413Z,17.20
2017-10-13T08:47:22.959Z,17.10
2017-10-13T08:49:50.491Z,16.90
2017-10-13T08:52:18.787Z,16.80
2017-10-13T08:54:46.327Z,16.80
2017-10-13T08:57:13.847Z,16.80
2017-10-13T08:59:41.406Z,16.70
2017-10-13T09:02:08.926Z,16.50
2017-10-13T09:04:36.463Z,16.40
2017-10-13T09:07:03.981Z,16.40
2017-10-13T09:09:31.524Z,16.40
2017-10-13T09:11:59.055Z,16.40
2017-10-13T09:14:26.635Z,16.30
2017-10-13T09:16:54.157Z,16.20
2017-10-13T09:19:22.361Z,16.20
2017-10-13T09:21:52.910Z,16.10
2017-10-13T09:24:21.206Z,16.10
2017-10-13T09:26:49.510Z,16.00
2017-10-13T09:29:17.025Z,16.00
2017-10-13T09:31:44.558Z,15.90
2017-10-13T09:34:12.075Z,15.70
2017-10-13T09:36:39.614Z,15.60
2017-10-13T09:39:07.897Z,15.50
2017-10-13T09:41:36.206Z,15.50
2017-10-13T09:44:03.727Z,15.50
2017-10-13T09:46:32.058Z,15.60
2017-10-13T09:48:59.763Z,15.60
2017-10-13T09:51:27.301Z,15.60
2017-10-13T09:53:54.839Z,15.50
2017-10-13T09:56:22.363Z,15.50
2017-10-13T09:58:49.909Z,15.60
2017-10-13T10:01:17.438Z,15.70
2017-10-13T10:03:44.985Z,15.70
2017-10-13T10:06:12.502Z,15.60
2017-10-13T10:08:40.038Z,15.60
2017-10-13T10:11:07.559Z,15.50
2017-10-13T10:13:35.887Z,15.30
2017-10-13T10:16:03.401Z,15.30
2017-10-13T10:18:31.682Z,15.30
2017-10-13T10:20:59.986Z,15.30
2017-10-13T10:23:27.506Z,15.30
2017-10-13T10:25:55.042Z,15.30
2017-10-13T10:28:22.562Z,15.40
2017-10-13T10:30:50.128Z,15.40
2017-10-13T10:33:17.651Z,15.40
2017-10-13T10:35:45.191Z,15.40
2017-10-13T10:38:12.714Z,15.40
2017-10-13T10:40:40.251Z,15.50
2017-10-13T10:43:08.566Z,15.70
2017-10-13T10:45:36.108Z,15.70
2017-10-13T10:48:03.654Z,15.80
2017-10-13T10:50:31.934Z,16.00
2017-10-13T10:52:59.475Z,16.00
2017-10-13T10:55:27.767Z,16.20
2017-10-13T10:57:56.096Z,16.40
2017-10-13T11:00:23.631Z,16.40
2017-10-13T11:02:51.157Z,16.50
2017-10-13T11:05:18.699Z,16.50
2017-10-13T11:07:46.220Z,16.60
2017-10-13T11:10:14.522Z,16.60
2017-10-13T11:12:42.049Z,16.50
2017-10-13T11:15:09.625Z,16.50
2017-10-13T11:17:37.919Z,16.30
2017-10-13T11:20:05.496Z,16.30
2017-10-13T11:22:33.010Z,16.30
2017-10-13T11:25:00.536Z,16.30
2017-10-13T11:27:28.079Z,16.20
2017-10-13T11:29:55.598Z,16.30
2017-10-13T11:32:23.907Z,16.30
2017-10-13T11:34:51.423Z,16.30
2017-10-13T11:37:18.968Z,16.40
2017-10-13T11:39:46.495Z,16.30
2017-10-13T11:42:14.030Z,16.30
2017-10-13T11:44:42.310Z,16.40
2017-10-13T11:47:09.870Z,16.40
2017-10-13T11:49:37.394Z,16.50
2017-10-13T11:52:04.914Z,16.60
2017-10-13T11:54:32.455Z,16.60
2017-10-13T11:56:59.979Z,16.60
2017-10-13T11:59:27.514Z,16.70
2017-10-13T12:01:55.030Z,16.80
2017-10-13T12:04:22.567Z,17.00
2017-10-13T12:06:50.847Z,17.20
2017-10-13T12:09:19.153Z,17.20
2017-10-13T12:11:46.679Z,17.20
2017-10-13T12:14:15.003Z,17.00
2017-10-13T12:16:42.534Z,17.00
2017-10-13T12:19:10.050Z,16.90
2017-10-13T12:21:37.585Z,16.90
2017-10-13T12:24:05.101Z,17.10
2017-10-13T12:26:32.634Z,17.20
2017-10-13T12:29:00.146Z,17.30
2017-10-13T12:31:28.447Z,17.50
2017-10-13T12:33:55.967Z,17.50
2017-10-13T12:36:23.497Z,17.70
2017-10-13T12:38:51.014Z,17.70
2017-10-13T12:41:18.570Z,17.80
2017-10-13T12:43:46.848Z,17.90
2017-10-13T12:46:15.126Z,17.90
2017-10-13T12:48:43.445Z,18.00
2017-10-13T12:51:10.969Z,18.00
2017-10-13T12:53:38.506Z,18.00
2017-10-13T12:56:06.789Z,18.00
2017-10-13T12:58:35.095Z,18.10
2017-10-13T13:01:02.616Z,18.00
2017-10-13T13:03:30.944Z,18.10
2017-10-13T13:05:58.459Z,18.10
2017-10-13T13:08:26.747Z,18.00
2017-10-13T13:10:54.287Z,18.00
2017-10-13T13:13:21.814Z,17.90
2017-10-13T13:15:50.123Z,17.70
2017-10-13T13:18:17.637Z,17.70
2017-10-13T13:20:45.185Z,17.60
2017-10-13T13:23:12.708Z,17.60
2017-10-13T13:25:40.247Z,17.50
2017-10-13T13:28:08.526Z,17.40
2017-10-13T13:30:36.832Z,17.40
2017-10-13T13:33:04.351Z,17.40
2017-10-13T13:35:32.674Z,17.50
2017-10-13T13:38:00.198Z,17.50
2017-10-13T13:40:28.482Z,17.70
2017-10-13T13:42:56.039Z,17.70
2017-10-13T13:45:23.563Z,17.80
2017-10-13T13:47:51.116Z,17.70
2017-10-13T13:50:18.630Z,17.80
2017-10-13T13:52:46.166Z,17.70
2017-10-13T13:55:14.458Z,17.60
2017-10-13T13:57:42.013Z,17.60
2017-10-13T14:00:10.300Z,17.40
2017-10-13T14:02:37.813Z,17.40
2017-10-13T14:05:05.359Z,17.40
2017-10-13T14:07:32.881Z,17.40
2017-10-13T14:10:00.423Z,17.40
2017-10-13T14:12:28.714Z,17.40
2017-10-13T14:14:56.253Z,17.30
2017-10-13T14:17:24.543Z,17.40
2017-10-13T14:19:52.872Z,17.40
2017-10-13T14:22:20.394Z,17.40
2017-10-13T14:24:47.916Z,17.40
2017-10-13T14:27:15.455Z,17.40
2017-10-13T14:29:43.742Z,17.30
2017-10-13T14:32:11.273Z,17.30
2017-10-13T14:34:38.792Z,17.20
2017-10-13T14:37:07.089Z,17.10
2017-10-13T14:39:34.603Z,17.10
2017-10-13T14:42:02.167Z,17.10
2017-10-13T14:44:29.685Z,17.10
2017-10-13T14:46:57.203Z,17.20
2017-10-13T14:49:25.501Z,17.30
2017-10-13T14:51:53.018Z,17.30
2017-10-13T14:54:20.554Z,17.40
2017-10-13T14:56:48.069Z,17.40
2017-10-13T14:59:16.366Z,17.20
2017-10-13T15:01:43.900Z,17.20
2017-10-13T15:04:12.202Z,17.30
2017-10-13T15:06:39.726Z,17.30
2017-10-13T15:09:08.050Z,17.30
2017-10-13T15:11:35.566Z,17.30
2017-10-13T15:14:03.856Z,17.40
2017-10-13T15:16:32.163Z,17.40
2017-10-13T15:18:59.678Z,17.40
2017-10-13T15:21:27.995Z,17.30
2017-10-13T15:23:55.511Z,17.30
2017-10-13T15:26:34.707Z,17.20
2017-10-13T15:29:07.881Z,17.20
2017-10-13T15:31:41.030Z,17.10
2017-10-13T15:34:14.950Z,16.90
2017-10-13T15:36:43.296Z,16.90
2017-10-13T15:39:16.590Z,16.90
2017-10-13T15:41:49.856Z,16.80
2017-10-13T15:44:22.994Z,16.80
2017-10-13T15:46:56.922Z,16.70
2017-10-13T15:49:30.103Z,16.70
2017-10-13T15:52:04.266Z,16.70
2017-10-13T15:54:31.782Z,16.70
2017-10-13T15:57:00.086Z,16.70
2017-10-13T15:59:28.370Z,16.60
2017-10-13T16:01:56.669Z,16.50
2017-10-13T16:04:24.188Z,16.50
2017-10-13T16:06:51.751Z,16.50
2017-10-13T16:09:19.274Z,16.40
2017-10-13T16:11:46.796Z,16.40
2017-10-13T16:14:14.338Z,16.40
2017-10-13T16:16:42.615Z,16.30
2017-10-13T16:19:10.918Z,16.30
2017-10-13T16:21:38.443Z,16.20
2017-10-13T16:24:05.993Z,16.20
2017-10-13T16:26:33.510Z,16.10
2017-10-13T16:29:01.062Z,16.10
2017-10-13T16:31:28.578Z,16.00
2017-10-13T16:33:56.099Z,15.80
2017-10-13T16:36:23.643Z,15.70
2017-10-13T16:38:51.158Z,15.60
2017-10-13T16:41:18.691Z,15.60
2017-10-13T16:43:46.983Z,15.40
2017-10-13T16:46:15.296Z,15.30
2017-10-13T16:48:42.814Z,15.30
2017-10-13T16:51:11.126Z,15.20
2017-10-13T16:53:38.643Z,15.10
2017-10-13T16:56:06.178Z,15.10
2017-10-13T16:58:33.701Z,15.00
2017-10-13T17:01:01.244Z,15.00
2017-10-13T17:03:29.523Z,14.90
2017-10-13T17:05:57.038Z,14.80
2017-10-13T17:08:24.579Z,14.80
2017-10-13T17:10:52.090Z,14.80
2017-10-13T17:13:20.391Z,14.70
2017-10-13T17:15:47.908Z,14.70
2017-10-13T17:18:15.444Z,14.70
2017-10-13T17:20:42.967Z,14.70
2017-10-13T17:23:10.522Z,14.70
2017-10-13T17:25:38.036Z,14.70
2017-10-13T17:28:05.564Z,14.70
2017-10-13T17:30:33.099Z,14.60
2017-10-13T17:33:00.613Z,14.60
2017-10-13T17:35:28.914Z,14.50
2017-10-13T17:37:56.426Z,14.50
2017-10-13T17:40:23.965Z,14.50
2017-10-13T17:42:51.482Z,14.50
2017-10-13T17:45:19.048Z,14.50
2017-10-13T17:47:46.567Z,14.60
2017-10-13T17:50:14.108Z,14.60
2017-10-13T17:52:41.626Z,14.60
2017-10-13T17:55:09.178Z,14.60
2017-10-13T17:57:36.703Z,14.50
2017-10-13T18:00:04.234Z,14.50
2017-10-13T18:02:31.770Z,14.50
2017-10-13T18:04:59.307Z,14.40
2017-10-13T18:07:26.862Z,14.40
2017-10-13T18:09:55.147Z,14.40
2017-10-13T18:12:22.678Z,14.40
2017-10-13T18:14:50.190Z,14.40
2017-10-13T18:17:17.727Z,14.40
2017-10-13T18:19:45.250Z,14.40
2017-10-13T18:22:12.806Z,14.40
2017-10-13T18:24:40.332Z,14.40
2017-10-13T18:27:07.846Z,14.40
2017-10-13T18:29:36.151Z,14.40
2017-10-13T18:32:03.670Z,14.30
2017-10-13T18:34:31.211Z,14.40
2017-10-13T18:36:58.736Z,14.40
2017-10-13T18:39:26.279Z,14.40
2017-10-13T18:41:53.803Z,14.40
2017-10-13T18:44:21.355Z,14.40
2017-10-13T18:46:48.875Z,14.40
2017-10-13T18:49:16.390Z,14.30
2017-10-13T18:51:43.922Z,14.30
2017-10-13T18:54:11.450Z,14.20
2017-10-13T18:56:38.995Z,14.20
2017-10-13T18:59:06.519Z,14.20
2017-10-13T19:01:34.824Z,14.20
2017-10-13T19:04:02.347Z,14.20
2017-10-13T19:06:30.654Z,14.20
2017-10-13T19:08:58.180Z,14.20
2017-10-13T19:11:26.487Z,14.20
2017-10-13T19:13:54.010Z,14.20
2017-10-13T19:16:21.548Z,14.30
2017-10-13T19:18:49.105Z,14.20
2017-10-13T19:21:16.622Z,14.30
2017-10-13T19:23:44.156Z,14.30
2017-10-13T19:26:11.684Z,14.30
2017-10-13T19:28:39.229Z,14.20
2017-10-13T19:31:07.510Z,14.20
2017-10-13T19:33:35.816Z,14.20
2017-10-13T19:36:03.334Z,14.20
2017-10-13T19:38:31.617Z,14.20
2017-10-13T19:40:59.971Z,14.20
2017-10-13T19:43:27.531Z,14.20
2017-10-13T19:45:55.071Z,14.20
2017-10-13T19:48:22.595Z,14.20
2017-10-13T19:50:50.168Z,14.20
2017-10-13T19:53:18.451Z,14.20
2017-10-13T19:55:46.779Z,14.20
2017-10-13T19:58:14.306Z,14.10
2017-10-13T20:00:41.828Z,14.10
2017-10-13T20:03:09.365Z,14.10
2017-10-13T20:05:36.883Z,14.10
2017-10-13T20:08:04.478Z,14.20
2017-10-13T20:10:31.999Z,14.20
2017-10-13T20:12:59.542Z,14.20
2017-10-13T20:15:27.833Z,14.10
2017-10-13T20:17:56.134Z,14.10
2017-10-13T20:20:23.651Z,14.10
2017-10-13T20:22:51.170Z,14.10
2017-10-13T20:25:18.722Z,14.10
2017-10-13T20:27:46.242Z,14.10
2017-10-13T20:30:14.551Z,14.10
2017-10-13T20:32:42.114Z,14.10
2017-10-13T20:35:09.650Z,14.10
2017-10-13T20:37:37.163Z,14.10
2017-10-13T20:40:04.704Z,14.00
2017-10-13T20:42:32.223Z,14.00
2017-10-13T20:45:00.507Z,14.00
2017-10-13T20:47:28.044Z,14.00
2017-10-13T20:49:56.331Z,13.90
2017-10-13T20:52:24.672Z,14.00
2017-10-13T20:54:52.186Z,14.00
2017-10-13T20:57:19.723Z,14.00
2017-10-13T20:59:48.002Z,14.00
2017-10-13T21:02:16.354Z,14.00
2017-10-13T21:04:43.871Z,14.00
2017-10-13T21:07:11.407Z,13.90
2017-10-13T21:09:39.694Z,13.90
2017-10-13T21:12:07.259Z,13.90
2017-10-13T21:14:34.775Z,13.90
2017-10-13T21:17:02.304Z,13.80
2017-10-13T21:19:29.845Z,13.80
2017-10-13T21:21:57.367Z,13.80
2017-10-13T21:24:25.674Z,13.80
2017-10-13T21:26:53.187Z,13.80
2017-10-13T21:29:20.723Z,13.80
2017-10-13T21:31:48.235Z,13.70
2017-10-13T21:34:15.784Z,13.70
2017-10-13T21:36:43.301Z,13.60
2017-10-13T21:39:10.818Z,13.60
2017-10-13T21:41:38.373Z,13.50
2017-10-13T21:44:05.898Z,13.60
2017-10-13T21:46:34.198Z,13.60
2017-10-13T21:49:01.715Z,13.60
2017-10-13T21:51:29.249Z,13.60
2017-10-13T21:53:56.775Z,13.60
2017-10-13T21:56:24.318Z,13.60
2017-10-13T21:58:52.604Z,13.60
2017-10-13T22:01:20.148Z,13.60
2017-10-13T22:03:48.439Z,13.50
2017-10-13T22:06:15.956Z,13.50
2017-10-13T22:08:43.498Z,13.40
2017-10-13T22:11:11.015Z,13.30
2017-10-13T22:13:38.554Z,13.30
2017-10-13T22:16:06.847Z,13.20
2017-10-13T22:18:35.157Z,13.20
2017-10-13T22:21:02.675Z,13.20
2017-10-13T22:23:30.993Z,13.20
2017-10-13T22:25:58.515Z,13.20
2017-10-13T22:28:26.802Z,13.10
2017-10-13T22:30:54.344Z,13.10
2017-10-13T22:33:22.631Z,13.10
2017-10-13T22:35:50.935Z,13.00
2017-10-13T22:38:18.455Z,13.00
2017-10-13T22:40:45.995Z,13.00
2017-10-13T22:43:13.517Z,13.00
2017-10-13T22:45:41.059Z,12.90
2017-10-13T22:48:09.352Z,12.80
2017-10-13T22:50:37.636Z,12.70
2017-10-13T22:53:05.182Z,12.70
2017-10-13T22:55:33.463Z,12.40
2017-10-13T22:58:01.770Z,12.30
2017-10-13T23:00:29.293Z,12.30
2017-10-13T23:02:57.597Z,12.10
2017-10-13T23:05:25.113Z,12.10
2017-10-13T23:07:52.650Z,12.10
2017-10-13T23:10:20.178Z,12.00
2017-10-13T23:12:47.699Z,12.00
2017-10-13T23:15:16.003Z,12.00
2017-10-13T23:17:43.522Z,12.00
2017-10-13T23:20:11.064Z,12.00
2017-10-13T23:22:38.584Z,12.00
2017-10-13T23:25:06.124Z,12.00
2017-10-13T23:27:34.408Z,12.10
2017-10-13T23:30:02.715Z,12.10
2017-10-13T23:32:30.239Z,12.10
2017-10-13T23:34:58.534Z,11.80
2017-10-13T23:37:26.070Z,11.80
2017-10-13T23:39:54.350Z,11.60
2017-10-13T23:42:22.659Z,11.60
2017-10-13T23:44:50.174Z,11.60
2017-10-13T23:47:17.713Z,11.60
2017-10-13T23:49:45.255Z,11.60
2017-10-13T23:52:12.778Z,11.60
2017-10-13T23:54:40.314Z,11.50
2017-10-13T23:57:07.842Z,11.50
2017-10-13T23:59:35.400Z,11.40
